KLOR/LOR METAR and TAF weather

Enter ICAO airport designator
Station Type Date Time Source
KLOR METAR 2021/09/28 03:58 UTC NOAA

KLOR 280358Z AUTO 00000KT 9SM CLR 19/18 A3006 RMK AO2 SLP160 P0001 T01880182 $


Station Type Date Time Source
KLOR Decoded METAR 2021/09/28 03:58 UTC NOAA

Fort Rucker, Lowe Army Heliport, AL, United States (KLOR) 31-21-32N 085-44-54W 93M
Sep 27, 2021 - 11:58 PM EDT / 2021.09.28 0358 UTC
Wind: Calm:0
Visibility: 9 mile(s):0
Sky conditions: clear
Precipitation last hour: 0.01 inches
Temperature: 65.8 F (18.8 C)
Dew Point: 64.8 F (18.2 C)
Relative Humidity: 96%
Pressure (altimeter): 30.06 in. Hg (1017 hPa)
ob: KLOR 280358Z AUTO 00000KT 9SM CLR 19/18 A3006 RMK AO2 SLP160 P0001 T01880182
cycle: 4

Station Type Date Time Source
KLOR TAF UTC NOAA

Error!

Example: see airport list